sensor_id;sensor_type;location;lat;lon;timestamp;P1;durP1;ratioP1;P2;durP2;ratioP2
43345;SDS011;28937;51.160;4.146;2023-09-07T00:01:55;6.30;;;5.70;;
43345;SDS011;28937;51.160;4.146;2023-09-07T00:04:20;6.38;;;5.57;;
43345;SDS011;28937;51.160;4.146;2023-09-07T00:06:47;6.47;;;5.43;;
43345;SDS011;28937;51.160;4.146;2023-09-07T00:09:14;8.70;;;5.43;;
43345;SDS011;28937;51.160;4.146;2023-09-07T00:11:47;6.80;;;5.55;;
43345;SDS011;28937;51.160;4.146;2023-09-07T00:14:13;7.68;;;5.38;;
43345;SDS011;28937;51.160;4.146;2023-09-07T00:16:39;9.07;;;5.60;;
43345;SDS011;28937;51.160;4.146;2023-09-07T00:19:04;6.45;;;4.88;;
43345;SDS011;28937;51.160;4.146;2023-09-07T00:21:30;7.00;;;5.50;;
43345;SDS011;28937;51.160;4.146;2023-09-07T00:23:56;6.13;;;5.50;;
43345;SDS011;28937;51.160;4.146;2023-09-07T00:26:22;8.35;;;5.75;;
43345;SDS011;28937;51.160;4.146;2023-09-07T00:28:47;8.07;;;5.88;;
43345;SDS011;28937;51.160;4.146;2023-09-07T00:31:13;10.88;;;5.80;;
43345;SDS011;28937;51.160;4.146;2023-09-07T00:33:39;7.63;;;5.68;;
43345;SDS011;28937;51.160;4.146;2023-09-07T00:36:04;7.97;;;5.95;;
43345;SDS011;28937;51.160;4.146;2023-09-07T00:38:30;8.77;;;6.18;;
43345;SDS011;28937;51.160;4.146;2023-09-07T00:40:56;8.40;;;5.68;;
43345;SDS011;28937;51.160;4.146;2023-09-07T00:43:21;7.53;;;6.00;;
43345;SDS011;28937;51.160;4.146;2023-09-07T00:45:47;10.52;;;6.28;;
43345;SDS011;28937;51.160;4.146;2023-09-07T00:48:13;9.95;;;5.50;;
43345;SDS011;28937;51.160;4.146;2023-09-07T00:50:41;6.22;;;5.60;;
43345;SDS011;28937;51.160;4.146;2023-09-07T00:53:07;8.55;;;5.35;;
43345;SDS011;28937;51.160;4.146;2023-09-07T00:55:33;8.57;;;6.10;;
43345;SDS011;28937;51.160;4.146;2023-09-07T00:58:00;8.50;;;6.00;;
43345;SDS011;28937;51.160;4.146;2023-09-07T01:00:28;12.05;;;6.85;;
43345;SDS011;28937;51.160;4.146;2023-09-07T01:02:53;8.35;;;6.13;;
43345;SDS011;28937;51.160;4.146;2023-09-07T01:05:21;8.82;;;6.40;;
43345;SDS011;28937;51.160;4.146;2023-09-07T01:07:56;9.32;;;6.65;;
43345;SDS011;28937;51.160;4.146;2023-09-07T01:10:28;7.72;;;6.20;;
43345;SDS011;28937;51.160;4.146;2023-09-07T01:12:53;9.75;;;7.00;;
43345;SDS011;28937;51.160;4.146;2023-09-07T01:15:19;7.38;;;6.22;;
43345;SDS011;28937;51.160;4.146;2023-09-07T01:17:44;9.30;;;6.57;;
43345;SDS011;28937;51.160;4.146;2023-09-07T01:20:11;8.32;;;7.35;;
43345;SDS011;28937;51.160;4.146;2023-09-07T01:22:38;7.55;;;6.85;;
43345;SDS011;28937;51.160;4.146;2023-09-07T01:25:06;8.80;;;7.90;;
43345;SDS011;28937;51.160;4.146;2023-09-07T01:27:33;11.32;;;7.90;;
43345;SDS011;28937;51.160;4.146;2023-09-07T01:29:59;8.32;;;7.50;;
43345;SDS011;28937;51.160;4.146;2023-09-07T01:32:24;9.30;;;7.28;;
43345;SDS011;28937;51.160;4.146;2023-09-07T01:34:53;8.80;;;7.75;;
43345;SDS011;28937;51.160;4.146;2023-09-07T01:37:21;9.40;;;7.50;;
43345;SDS011;28937;51.160;4.146;2023-09-07T01:39:47;9.40;;;7.65;;
43345;SDS011;28937;51.160;4.146;2023-09-07T01:42:14;10.35;;;7.85;;
43345;SDS011;28937;51.160;4.146;2023-09-07T01:44:39;8.55;;;7.75;;
43345;SDS011;28937;51.160;4.146;2023-09-07T01:47:05;8.27;;;7.47;;
43345;SDS011;28937;51.160;4.146;2023-09-07T01:49:30;9.18;;;8.25;;
43345;SDS011;28937;51.160;4.146;2023-09-07T01:51:56;11.90;;;8.15;;
43345;SDS011;28937;51.160;4.146;2023-09-07T01:54:22;8.48;;;7.45;;
43345;SDS011;28937;51.160;4.146;2023-09-07T01:56:47;9.43;;;8.07;;
43345;SDS011;28937;51.160;4.146;2023-09-07T01:59:13;9.90;;;7.55;;
43345;SDS011;28937;51.160;4.146;2023-09-07T02:01:39;8.40;;;7.57;;
43345;SDS011;28937;51.160;4.146;2023-09-07T02:04:05;8.15;;;7.35;;
43345;SDS011;28937;51.160;4.146;2023-09-07T02:06:31;8.65;;;7.80;;
43345;SDS011;28937;51.160;4.146;2023-09-07T02:08:56;7.97;;;7.07;;
43345;SDS011;28937;51.160;4.146;2023-09-07T02:11:22;10.90;;;7.90;;
43345;SDS011;28937;51.160;4.146;2023-09-07T02:13:48;8.15;;;7.32;;
43345;SDS011;28937;51.160;4.146;2023-09-07T02:16:13;8.73;;;7.82;;
43345;SDS011;28937;51.160;4.146;2023-09-07T02:18:39;9.05;;;7.35;;
43345;SDS011;28937;51.160;4.146;2023-09-07T02:21:08;10.88;;;7.88;;
43345;SDS011;28937;51.160;4.146;2023-09-07T02:23:34;12.15;;;7.57;;
43345;SDS011;28937;51.160;4.146;2023-09-07T02:26:02;9.65;;;7.55;;
43345;SDS011;28937;51.160;4.146;2023-09-07T02:28:28;10.05;;;7.35;;
43345;SDS011;28937;51.160;4.146;2023-09-07T02:30:54;9.80;;;8.15;;
43345;SDS011;28937;51.160;4.146;2023-09-07T02:33:19;9.10;;;7.82;;
43345;SDS011;28937;51.160;4.146;2023-09-07T02:35:47;9.38;;;8.43;;
43345;SDS011;28937;51.160;4.146;2023-09-07T02:38:14;9.23;;;7.60;;
43345;SDS011;28937;51.160;4.146;2023-09-07T02:40:43;10.40;;;8.30;;
43345;SDS011;28937;51.160;4.146;2023-09-07T02:43:09;9.00;;;8.07;;
43345;SDS011;28937;51.160;4.146;2023-09-07T02:45:35;8.65;;;7.80;;
43345;SDS011;28937;51.160;4.146;2023-09-07T02:48:02;10.07;;;7.18;;
43345;SDS011;28937;51.160;4.146;2023-09-07T02:50:31;12.40;;;8.57;;
43345;SDS011;28937;51.160;4.146;2023-09-07T02:52:58;12.15;;;7.35;;
43345;SDS011;28937;51.160;4.146;2023-09-07T02:55:25;8.88;;;7.85;;
43345;SDS011;28937;51.160;4.146;2023-09-07T02:57:51;10.48;;;8.60;;
43345;SDS011;28937;51.160;4.146;2023-09-07T03:00:17;8.95;;;7.85;;
43345;SDS011;28937;51.160;4.146;2023-09-07T03:02:43;12.13;;;8.52;;
43345;SDS011;28937;51.160;4.146;2023-09-07T03:05:09;9.32;;;8.30;;
43345;SDS011;28937;51.160;4.146;2023-09-07T03:07:35;8.75;;;7.82;;
43345;SDS011;28937;51.160;4.146;2023-09-07T03:10:00;8.90;;;8.07;;
43345;SDS011;28937;51.160;4.146;2023-09-07T03:12:27;9.65;;;7.80;;
43345;SDS011;28937;51.160;4.146;2023-09-07T03:14:53;11.82;;;8.02;;
43345;SDS011;28937;51.160;4.146;2023-09-07T03:17:18;8.43;;;7.63;;
43345;SDS011;28937;51.160;4.146;2023-09-07T03:19:46;9.23;;;8.32;;
43345;SDS011;28937;51.160;4.146;2023-09-07T03:22:12;9.70;;;8.40;;
43345;SDS011;28937;51.160;4.146;2023-09-07T03:24:38;8.98;;;7.95;;
43345;SDS011;28937;51.160;4.146;2023-09-07T03:27:04;8.88;;;8.05;;
43345;SDS011;28937;51.160;4.146;2023-09-07T03:29:30;10.15;;;7.85;;
43345;SDS011;28937;51.160;4.146;2023-09-07T03:31:58;10.57;;;8.75;;
43345;SDS011;28937;51.160;4.146;2023-09-07T03:34:27;10.40;;;8.55;;
43345;SDS011;28937;51.160;4.146;2023-09-07T03:36:53;8.95;;;8.07;;
43345;SDS011;28937;51.160;4.146;2023-09-07T03:39:18;10.32;;;8.02;;
43345;SDS011;28937;51.160;4.146;2023-09-07T03:41:46;9.10;;;8.20;;
43345;SDS011;28937;51.160;4.146;2023-09-07T03:44:12;11.25;;;8.63;;
43345;SDS011;28937;51.160;4.146;2023-09-07T03:46:37;10.23;;;8.20;;
43345;SDS011;28937;51.160;4.146;2023-09-07T03:49:03;8.68;;;7.78;;
43345;SDS011;28937;51.160;4.146;2023-09-07T03:51:28;9.65;;;8.65;;
43345;SDS011;28937;51.160;4.146;2023-09-07T03:53:54;9.20;;;8.15;;
43345;SDS011;28937;51.160;4.146;2023-09-07T03:56:19;11.27;;;9.18;;
43345;SDS011;28937;51.160;4.146;2023-09-07T03:58:45;9.65;;;8.32;;
43345;SDS011;28937;51.160;4.146;2023-09-07T04:01:14;12.02;;;8.30;;
43345;SDS011;28937;51.160;4.146;2023-09-07T04:03:39;8.95;;;8.00;;
43345;SDS011;28937;51.160;4.146;2023-09-07T04:06:08;10.18;;;9.00;;
43345;SDS011;28937;51.160;4.146;2023-09-07T04:08:34;9.35;;;8.35;;
43345;SDS011;28937;51.160;4.146;2023-09-07T04:11:04;15.23;;;9.05;;
43345;SDS011;28937;51.160;4.146;2023-09-07T04:13:32;8.82;;;7.97;;
43345;SDS011;28937;51.160;4.146;2023-09-07T04:15:58;11.50;;;8.20;;
43345;SDS011;28937;51.160;4.146;2023-09-07T04:18:23;10.65;;;8.30;;
43345;SDS011;28937;51.160;4.146;2023-09-07T04:20:49;8.63;;;7.82;;
43345;SDS011;28937;51.160;4.146;2023-09-07T04:23:15;9.43;;;7.88;;
43345;SDS011;28937;51.160;4.146;2023-09-07T04:25:41;9.60;;;8.70;;
43345;SDS011;28937;51.160;4.146;2023-09-07T04:28:07;9.52;;;8.43;;
43345;SDS011;28937;51.160;4.146;2023-09-07T04:30:37;10.10;;;8.90;;
43345;SDS011;28937;51.160;4.146;2023-09-07T04:33:03;9.02;;;8.15;;
43345;SDS011;28937;51.160;4.146;2023-09-07T04:35:29;11.30;;;8.43;;
43345;SDS011;28937;51.160;4.146;2023-09-07T04:37:57;8.98;;;8.13;;
43345;SDS011;28937;51.160;4.146;2023-09-07T04:40:23;9.63;;;8.60;;
43345;SDS011;28937;51.160;4.146;2023-09-07T04:42:49;10.48;;;8.60;;
43345;SDS011;28937;51.160;4.146;2023-09-07T04:45:15;10.20;;;8.35;;
43345;SDS011;28937;51.160;4.146;2023-09-07T04:47:41;9.35;;;8.45;;
43345;SDS011;28937;51.160;4.146;2023-09-07T04:50:08;10.77;;;8.80;;
43345;SDS011;28937;51.160;4.146;2023-09-07T04:52:34;9.63;;;7.80;;
43345;SDS011;28937;51.160;4.146;2023-09-07T04:55:01;9.35;;;8.38;;
43345;SDS011;28937;51.160;4.146;2023-09-07T04:57:27;10.52;;;8.27;;
43345;SDS011;28937;51.160;4.146;2023-09-07T04:59:52;9.07;;;8.18;;
43345;SDS011;28937;51.160;4.146;2023-09-07T05:02:18;8.52;;;7.75;;
43345;SDS011;28937;51.160;4.146;2023-09-07T05:04:44;10.52;;;8.75;;
43345;SDS011;28937;51.160;4.146;2023-09-07T05:07:10;9.18;;;7.80;;
43345;SDS011;28937;51.160;4.146;2023-09-07T05:09:35;16.23;;;9.80;;
43345;SDS011;28937;51.160;4.146;2023-09-07T05:12:01;13.95;;;9.35;;
43345;SDS011;28937;51.160;4.146;2023-09-07T05:14:27;10.88;;;8.93;;
43345;SDS011;28937;51.160;4.146;2023-09-07T05:16:54;10.82;;;8.90;;
43345;SDS011;28937;51.160;4.146;2023-09-07T05:19:21;11.20;;;9.18;;
43345;SDS011;28937;51.160;4.146;2023-09-07T05:21:47;10.30;;;9.02;;
43345;SDS011;28937;51.160;4.146;2023-09-07T05:24:13;11.60;;;9.00;;
43345;SDS011;28937;51.160;4.146;2023-09-07T05:26:39;14.52;;;8.93;;
43345;SDS011;28937;51.160;4.146;2023-09-07T05:29:05;13.63;;;9.18;;
43345;SDS011;28937;51.160;4.146;2023-09-07T05:31:30;12.70;;;9.07;;
43345;SDS011;28937;51.160;4.146;2023-09-07T05:33:56;11.40;;;8.88;;
43345;SDS011;28937;51.160;4.146;2023-09-07T05:36:22;10.27;;;9.18;;
43345;SDS011;28937;51.160;4.146;2023-09-07T05:38:47;11.82;;;9.02;;
43345;SDS011;28937;51.160;4.146;2023-09-07T05:41:13;11.27;;;8.73;;
43345;SDS011;28937;51.160;4.146;2023-09-07T05:43:39;11.57;;;9.32;;
43345;SDS011;28937;51.160;4.146;2023-09-07T05:46:04;12.15;;;8.60;;
43345;SDS011;28937;51.160;4.146;2023-09-07T05:48:30;11.88;;;9.45;;
43345;SDS011;28937;51.160;4.146;2023-09-07T05:50:56;10.73;;;9.02;;
43345;SDS011;28937;51.160;4.146;2023-09-07T05:53:22;15.02;;;10.10;;
43345;SDS011;28937;51.160;4.146;2023-09-07T05:55:49;23.30;;;10.80;;
43345;SDS011;28937;51.160;4.146;2023-09-07T05:58:15;21.83;;;10.63;;
43345;SDS011;28937;51.160;4.146;2023-09-07T06:00:41;19.13;;;11.20;;
43345;SDS011;28937;51.160;4.146;2023-09-07T06:03:07;21.63;;;11.38;;
43345;SDS011;28937;51.160;4.146;2023-09-07T06:05:33;30.08;;;11.95;;
43345;SDS011;28937;51.160;4.146;2023-09-07T06:08:00;18.67;;;10.95;;
43345;SDS011;28937;51.160;4.146;2023-09-07T06:10:27;15.13;;;10.63;;
43345;SDS011;28937;51.160;4.146;2023-09-07T06:12:55;13.35;;;9.50;;
43345;SDS011;28937;51.160;4.146;2023-09-07T06:15:21;11.00;;;9.85;;
43345;SDS011;28937;51.160;4.146;2023-09-07T06:17:46;10.55;;;9.55;;
43345;SDS011;28937;51.160;4.146;2023-09-07T06:20:12;11.13;;;9.95;;
43345;SDS011;28937;51.160;4.146;2023-09-07T06:22:38;14.55;;;10.23;;
43345;SDS011;28937;51.160;4.146;2023-09-07T06:25:03;12.93;;;10.32;;
43345;SDS011;28937;51.160;4.146;2023-09-07T06:27:29;13.02;;;9.70;;
43345;SDS011;28937;51.160;4.146;2023-09-07T06:29:55;12.50;;;10.75;;
43345;SDS011;28937;51.160;4.146;2023-09-07T06:32:21;12.35;;;9.95;;
43345;SDS011;28937;51.160;4.146;2023-09-07T06:34:48;11.52;;;10.32;;
43345;SDS011;28937;51.160;4.146;2023-09-07T06:37:13;11.63;;;10.48;;
43345;SDS011;28937;51.160;4.146;2023-09-07T06:39:39;12.00;;;9.60;;
43345;SDS011;28937;51.160;4.146;2023-09-07T06:42:07;15.27;;;11.40;;
43345;SDS011;28937;51.160;4.146;2023-09-07T06:44:34;13.32;;;10.65;;
43345;SDS011;28937;51.160;4.146;2023-09-07T06:47:00;12.10;;;10.23;;
43345;SDS011;28937;51.160;4.146;2023-09-07T06:49:26;13.90;;;10.68;;
43345;SDS011;28937;51.160;4.146;2023-09-07T06:51:54;13.07;;;10.13;;
43345;SDS011;28937;51.160;4.146;2023-09-07T06:54:20;13.93;;;10.65;;
43345;SDS011;28937;51.160;4.146;2023-09-07T06:56:46;12.35;;;10.93;;
43345;SDS011;28937;51.160;4.146;2023-09-07T06:59:11;11.88;;;10.43;;
43345;SDS011;28937;51.160;4.146;2023-09-07T07:01:37;11.93;;;10.27;;
43345;SDS011;28937;51.160;4.146;2023-09-07T07:04:03;13.32;;;10.57;;
43345;SDS011;28937;51.160;4.146;2023-09-07T07:06:28;11.68;;;10.10;;
43345;SDS011;28937;51.160;4.146;2023-09-07T07:08:54;11.55;;;10.20;;
43345;SDS011;28937;51.160;4.146;2023-09-07T07:11:19;11.20;;;10.00;;
43345;SDS011;28937;51.160;4.146;2023-09-07T07:13:45;12.18;;;10.50;;
43345;SDS011;28937;51.160;4.146;2023-09-07T07:16:11;11.57;;;9.18;;
43345;SDS011;28937;51.160;4.146;2023-09-07T07:18:36;11.07;;;9.90;;
43345;SDS011;28937;51.160;4.146;2023-09-07T07:21:02;11.40;;;9.60;;
43345;SDS011;28937;51.160;4.146;2023-09-07T07:23:27;11.43;;;9.82;;
43345;SDS011;28937;51.160;4.146;2023-09-07T07:25:53;14.75;;;9.90;;
43345;SDS011;28937;51.160;4.146;2023-09-07T07:28:19;14.77;;;10.85;;
43345;SDS011;28937;51.160;4.146;2023-09-07T07:30:44;10.30;;;8.95;;
43345;SDS011;28937;51.160;4.146;2023-09-07T07:33:10;10.07;;;9.07;;
43345;SDS011;28937;51.160;4.146;2023-09-07T07:35:37;12.07;;;9.07;;
43345;SDS011;28937;51.160;4.146;2023-09-07T07:38:05;10.48;;;9.02;;
43345;SDS011;28937;51.160;4.146;2023-09-07T07:40:33;8.80;;;7.57;;
43345;SDS011;28937;51.160;4.146;2023-09-07T07:42:59;10.35;;;9.18;;
43345;SDS011;28937;51.160;4.146;2023-09-07T07:45:25;10.40;;;8.07;;
43345;SDS011;28937;51.160;4.146;2023-09-07T07:47:51;9.90;;;8.23;;
43345;SDS011;28937;51.160;4.146;2023-09-07T07:50:17;12.98;;;9.00;;
43345;SDS011;28937;51.160;4.146;2023-09-07T07:52:43;12.15;;;7.85;;
43345;SDS011;28937;51.160;4.146;2023-09-07T07:55:09;8.85;;;7.22;;
43345;SDS011;28937;51.160;4.146;2023-09-07T07:57:35;7.70;;;6.60;;
43345;SDS011;28937;51.160;4.146;2023-09-07T08:00:01;8.25;;;6.38;;
43345;SDS011;28937;51.160;4.146;2023-09-07T08:02:29;8.38;;;6.40;;
43345;SDS011;28937;51.160;4.146;2023-09-07T08:04:55;6.88;;;5.80;;
43345;SDS011;28937;51.160;4.146;2023-09-07T08:07:20;8.50;;;5.68;;
43345;SDS011;28937;51.160;4.146;2023-09-07T08:09:46;6.93;;;6.22;;
43345;SDS011;28937;51.160;4.146;2023-09-07T08:12:12;11.15;;;6.65;;
43345;SDS011;28937;51.160;4.146;2023-09-07T08:14:37;9.52;;;5.95;;
43345;SDS011;28937;51.160;4.146;2023-09-07T08:17:03;8.95;;;5.70;;
43345;SDS011;28937;51.160;4.146;2023-09-07T08:19:29;7.97;;;5.40;;
43345;SDS011;28937;51.160;4.146;2023-09-07T08:21:54;10.75;;;5.97;;
43345;SDS011;28937;51.160;4.146;2023-09-07T08:24:20;10.98;;;5.93;;
43345;SDS011;28937;51.160;4.146;2023-09-07T08:26:46;8.18;;;5.68;;
43345;SDS011;28937;51.160;4.146;2023-09-07T08:29:16;5.50;;;5.00;;
43345;SDS011;28937;51.160;4.146;2023-09-07T08:31:45;6.30;;;5.43;;
43345;SDS011;28937;51.160;4.146;2023-09-07T08:34:13;7.25;;;5.15;;
43345;SDS011;28937;51.160;4.146;2023-09-07T08:36:39;9.98;;;5.72;;
43345;SDS011;28937;51.160;4.146;2023-09-07T08:39:05;7.28;;;4.75;;
43345;SDS011;28937;51.160;4.146;2023-09-07T08:41:37;11.07;;;5.47;;
43345;SDS011;28937;51.160;4.146;2023-09-07T08:44:07;10.38;;;5.65;;
43345;SDS011;28937;51.160;4.146;2023-09-07T08:46:34;8.55;;;5.05;;
43345;SDS011;28937;51.160;4.146;2023-09-07T08:49:01;10.80;;;6.07;;
43345;SDS011;28937;51.160;4.146;2023-09-07T08:51:29;7.55;;;5.00;;
43345;SDS011;28937;51.160;4.146;2023-09-07T08:53:56;5.72;;;4.93;;
43345;SDS011;28937;51.160;4.146;2023-09-07T08:56:25;8.85;;;4.35;;
43345;SDS011;28937;51.160;4.146;2023-09-07T08:58:51;9.88;;;4.35;;
43345;SDS011;28937;51.160;4.146;2023-09-07T09:01:17;5.05;;;4.55;;
43345;SDS011;28937;51.160;4.146;2023-09-07T09:03:43;8.43;;;4.75;;
43345;SDS011;28937;51.160;4.146;2023-09-07T09:06:10;6.28;;;4.82;;
43345;SDS011;28937;51.160;4.146;2023-09-07T09:08:50;8.35;;;4.78;;
43345;SDS011;28937;51.160;4.146;2023-09-07T09:11:20;10.20;;;5.25;;
43345;SDS011;28937;51.160;4.146;2023-09-07T09:13:47;5.82;;;4.22;;
43345;SDS011;28937;51.160;4.146;2023-09-07T09:16:13;10.55;;;4.18;;
43345;SDS011;28937;51.160;4.146;2023-09-07T09:21:17;10.07;;;4.18;;
43345;SDS011;28937;51.160;4.146;2023-09-07T09:23:46;5.57;;;3.92;;
43345;SDS011;28937;51.160;4.146;2023-09-07T09:26:16;5.03;;;3.92;;
43345;SDS011;28937;51.160;4.146;2023-09-07T09:28:42;6.25;;;4.05;;
43345;SDS011;28937;51.160;4.146;2023-09-07T09:31:11;8.68;;;4.25;;
43345;SDS011;28937;51.160;4.146;2023-09-07T09:33:40;7.07;;;4.07;;
43345;SDS011;28937;51.160;4.146;2023-09-07T09:36:07;7.95;;;4.05;;
43345;SDS011;28937;51.160;4.146;2023-09-07T09:38:34;5.57;;;4.15;;
43345;SDS011;28937;51.160;4.146;2023-09-07T09:41:00;7.43;;;4.35;;
43345;SDS011;28937;51.160;4.146;2023-09-07T09:43:26;7.40;;;4.10;;
43345;SDS011;28937;51.160;4.146;2023-09-07T09:45:52;11.63;;;4.80;;
43345;SDS011;28937;51.160;4.146;2023-09-07T09:48:21;7.88;;;5.25;;
43345;SDS011;28937;51.160;4.146;2023-09-07T09:50:47;12.73;;;4.40;;
43345;SDS011;28937;51.160;4.146;2023-09-07T09:53:15;6.65;;;4.18;;
43345;SDS011;28937;51.160;4.146;2023-09-07T09:55:44;8.00;;;3.90;;
43345;SDS011;28937;51.160;4.146;2023-09-07T09:58:16;6.15;;;3.53;;
43345;SDS011;28937;51.160;4.146;2023-09-07T10:00:45;7.35;;;3.42;;
43345;SDS011;28937;51.160;4.146;2023-09-07T10:05:45;6.00;;;3.63;;
43345;SDS011;28937;51.160;4.146;2023-09-07T10:08:15;7.00;;;3.63;;
43345;SDS011;28937;51.160;4.146;2023-09-07T10:10:43;7.75;;;3.55;;
43345;SDS011;28937;51.160;4.146;2023-09-07T10:13:13;6.55;;;4.13;;
43345;SDS011;28937;51.160;4.146;2023-09-07T10:15:39;6.18;;;3.30;;
43345;SDS011;28937;51.160;4.146;2023-09-07T10:18:14;4.72;;;3.28;;
43345;SDS011;28937;51.160;4.146;2023-09-07T10:23:18;5.40;;;3.40;;
43345;SDS011;28937;51.160;4.146;2023-09-07T10:25:51;7.32;;;3.30;;
43345;SDS011;28937;51.160;4.146;2023-09-07T10:28:18;4.97;;;3.28;;
43345;SDS011;28937;51.160;4.146;2023-09-07T10:31:06;9.60;;;3.92;;
43345;SDS011;28937;51.160;4.146;2023-09-07T10:33:38;7.05;;;3.92;;
43345;SDS011;28937;51.160;4.146;2023-09-07T10:36:04;5.90;;;3.42;;
43345;SDS011;28937;51.160;4.146;2023-09-07T10:38:31;7.72;;;3.28;;
43345;SDS011;28937;51.160;4.146;2023-09-07T10:40:58;6.05;;;3.08;;
43345;SDS011;28937;51.160;4.146;2023-09-07T10:43:26;4.45;;;3.00;;
43345;SDS011;28937;51.160;4.146;2023-09-07T10:45:53;21.00;;;4.90;;
43345;SDS011;28937;51.160;4.146;2023-09-07T10:48:20;5.68;;;3.80;;
43345;SDS011;28937;51.160;4.146;2023-09-07T10:50:46;7.18;;;3.40;;
43345;SDS011;28937;51.160;4.146;2023-09-07T10:53:13;4.88;;;3.33;;
43345;SDS011;28937;51.160;4.146;2023-09-07T10:55:39;7.00;;;3.63;;
43345;SDS011;28937;51.160;4.146;2023-09-07T10:58:05;6.15;;;3.70;;
43345;SDS011;28937;51.160;4.146;2023-09-07T11:00:32;8.00;;;3.85;;
43345;SDS011;28937;51.160;4.146;2023-09-07T11:02:57;7.63;;;3.50;;
43345;SDS011;28937;51.160;4.146;2023-09-07T11:05:23;8.45;;;3.33;;
43345;SDS011;28937;51.160;4.146;2023-09-07T11:07:49;4.70;;;3.42;;
43345;SDS011;28937;51.160;4.146;2023-09-07T11:10:15;6.07;;;3.30;;
43345;SDS011;28937;51.160;4.146;2023-09-07T11:12:40;4.32;;;3.67;;
43345;SDS011;28937;51.160;4.146;2023-09-07T11:15:09;9.43;;;3.38;;
43345;SDS011;28937;51.160;4.146;2023-09-07T11:17:39;5.75;;;3.45;;
43345;SDS011;28937;51.160;4.146;2023-09-07T11:20:05;6.20;;;3.60;;
43345;SDS011;28937;51.160;4.146;2023-09-07T11:22:32;7.97;;;3.85;;
43345;SDS011;28937;51.160;4.146;2023-09-07T11:25:01;4.82;;;3.28;;
43345;SDS011;28937;51.160;4.146;2023-09-07T11:27:30;3.58;;;3.28;;
43345;SDS011;28937;51.160;4.146;2023-09-07T11:29:56;4.05;;;3.50;;
43345;SDS011;28937;51.160;4.146;2023-09-07T11:32:22;6.82;;;3.00;;
43345;SDS011;28937;51.160;4.146;2023-09-07T11:34:49;5.88;;;3.60;;
43345;SDS011;28937;51.160;4.146;2023-09-07T11:37:16;4.93;;;3.92;;
43345;SDS011;28937;51.160;4.146;2023-09-07T11:39:49;4.13;;;3.00;;
43345;SDS011;28937;51.160;4.146;2023-09-07T11:42:14;4.47;;;3.22;;
43345;SDS011;28937;51.160;4.146;2023-09-07T11:44:40;3.08;;;2.70;;
43345;SDS011;28937;51.160;4.146;2023-09-07T11:47:05;5.88;;;3.38;;
43345;SDS011;28937;51.160;4.146;2023-09-07T11:49:32;6.03;;;3.55;;
43345;SDS011;28937;51.160;4.146;2023-09-07T11:51:57;5.63;;;3.13;;
43345;SDS011;28937;51.160;4.146;2023-09-07T11:54:23;4.60;;;3.00;;
43345;SDS011;28937;51.160;4.146;2023-09-07T11:56:49;6.70;;;2.92;;
43345;SDS011;28937;51.160;4.146;2023-09-07T11:59:14;4.97;;;2.95;;
43345;SDS011;28937;51.160;4.146;2023-09-07T12:01:42;3.13;;;2.83;;
43345;SDS011;28937;51.160;4.146;2023-09-07T12:04:08;5.88;;;2.85;;
43345;SDS011;28937;51.160;4.146;2023-09-07T12:06:33;5.50;;;2.80;;
43345;SDS011;28937;51.160;4.146;2023-09-07T12:11:26;6.72;;;2.95;;
43345;SDS011;28937;51.160;4.146;2023-09-07T12:13:52;5.70;;;2.75;;
43345;SDS011;28937;51.160;4.146;2023-09-07T12:16:17;5.15;;;2.83;;
43345;SDS011;28937;51.160;4.146;2023-09-07T12:18:43;4.30;;;3.30;;
43345;SDS011;28937;51.160;4.146;2023-09-07T12:21:08;4.97;;;2.90;;
43345;SDS011;28937;51.160;4.146;2023-09-07T12:23:34;4.80;;;2.80;;
43345;SDS011;28937;51.160;4.146;2023-09-07T12:26:00;6.00;;;2.88;;
43345;SDS011;28937;51.160;4.146;2023-09-07T12:28:26;5.55;;;2.97;;
43345;SDS011;28937;51.160;4.146;2023-09-07T12:30:52;6.53;;;2.47;;
43345;SDS011;28937;51.160;4.146;2023-09-07T12:33:17;4.18;;;2.55;;
43345;SDS011;28937;51.160;4.146;2023-09-07T12:35:43;4.32;;;2.60;;
43345;SDS011;28937;51.160;4.146;2023-09-07T12:38:08;3.75;;;3.00;;
43345;SDS011;28937;51.160;4.146;2023-09-07T12:40:36;5.70;;;3.17;;
43345;SDS011;28937;51.160;4.146;2023-09-07T12:43:01;7.05;;;2.70;;
43345;SDS011;28937;51.160;4.146;2023-09-07T12:45:27;6.22;;;3.28;;
43345;SDS011;28937;51.160;4.146;2023-09-07T12:47:53;4.50;;;2.58;;
43345;SDS011;28937;51.160;4.146;2023-09-07T12:50:18;3.72;;;2.97;;
43345;SDS011;28937;51.160;4.146;2023-09-07T12:52:44;4.20;;;3.00;;
43345;SDS011;28937;51.160;4.146;2023-09-07T12:55:09;3.25;;;2.75;;
43345;SDS011;28937;51.160;4.146;2023-09-07T12:57:35;9.00;;;2.58;;
43345;SDS011;28937;51.160;4.146;2023-09-07T13:00:01;3.38;;;2.60;;
43345;SDS011;28937;51.160;4.146;2023-09-07T13:02:28;5.18;;;2.60;;
43345;SDS011;28937;51.160;4.146;2023-09-07T13:04:54;2.92;;;2.67;;
43345;SDS011;28937;51.160;4.146;2023-09-07T13:07:23;3.45;;;3.15;;
43345;SDS011;28937;51.160;4.146;2023-09-07T13:09:49;3.47;;;2.25;;
43345;SDS011;28937;51.160;4.146;2023-09-07T13:12:14;4.97;;;2.35;;
43345;SDS011;28937;51.160;4.146;2023-09-07T13:14:40;3.95;;;2.90;;
43345;SDS011;28937;51.160;4.146;2023-09-07T13:17:09;4.35;;;2.58;;
43345;SDS011;28937;51.160;4.146;2023-09-07T13:19:37;7.13;;;2.63;;
43345;SDS011;28937;51.160;4.146;2023-09-07T13:22:02;4.63;;;2.58;;
43345;SDS011;28937;51.160;4.146;2023-09-07T13:24:28;4.57;;;2.80;;
43345;SDS011;28937;51.160;4.146;2023-09-07T13:26:54;3.03;;;2.50;;
43345;SDS011;28937;51.160;4.146;2023-09-07T13:29:20;4.80;;;3.05;;
43345;SDS011;28937;51.160;4.146;2023-09-07T13:31:46;5.60;;;2.80;;
43345;SDS011;28937;51.160;4.146;2023-09-07T13:34:12;3.70;;;2.67;;
43345;SDS011;28937;51.160;4.146;2023-09-07T13:36:37;7.85;;;2.40;;
43345;SDS011;28937;51.160;4.146;2023-09-07T13:39:03;4.10;;;2.42;;
43345;SDS011;28937;51.160;4.146;2023-09-07T13:41:29;5.72;;;2.45;;
43345;SDS011;28937;51.160;4.146;2023-09-07T13:43:54;4.65;;;2.28;;
43345;SDS011;28937;51.160;4.146;2023-09-07T13:46:21;2.90;;;2.47;;
43345;SDS011;28937;51.160;4.146;2023-09-07T13:48:48;2.35;;;2.15;;
43345;SDS011;28937;51.160;4.146;2023-09-07T13:51:13;3.05;;;2.45;;
43345;SDS011;28937;51.160;4.146;2023-09-07T13:53:40;4.47;;;2.70;;
43345;SDS011;28937;51.160;4.146;2023-09-07T13:56:05;4.25;;;2.45;;
43345;SDS011;28937;51.160;4.146;2023-09-07T13:58:31;3.28;;;2.33;;
43345;SDS011;28937;51.160;4.146;2023-09-07T14:00:56;5.50;;;2.35;;
43345;SDS011;28937;51.160;4.146;2023-09-07T14:03:22;4.13;;;3.17;;
43345;SDS011;28937;51.160;4.146;2023-09-07T14:05:48;3.78;;;2.60;;
43345;SDS011;28937;51.160;4.146;2023-09-07T14:08:13;3.75;;;2.72;;
43345;SDS011;28937;51.160;4.146;2023-09-07T14:10:39;2.80;;;2.50;;
43345;SDS011;28937;51.160;4.146;2023-09-07T14:13:04;2.85;;;2.22;;
43345;SDS011;28937;51.160;4.146;2023-09-07T14:15:30;3.63;;;2.42;;
43345;SDS011;28937;51.160;4.146;2023-09-07T14:17:56;2.90;;;2.25;;
43345;SDS011;28937;51.160;4.146;2023-09-07T14:20:22;2.90;;;2.70;;
43345;SDS011;28937;51.160;4.146;2023-09-07T14:22:47;5.93;;;2.28;;
43345;SDS011;28937;51.160;4.146;2023-09-07T14:25:13;3.53;;;2.85;;
43345;SDS011;28937;51.160;4.146;2023-09-07T14:27:41;3.25;;;2.70;;
43345;SDS011;28937;51.160;4.146;2023-09-07T14:30:07;5.45;;;2.65;;
43345;SDS011;28937;51.160;4.146;2023-09-07T14:32:32;4.68;;;3.20;;
43345;SDS011;28937;51.160;4.146;2023-09-07T14:34:58;5.82;;;2.20;;
43345;SDS011;28937;51.160;4.146;2023-09-07T14:37:24;3.80;;;2.70;;
43345;SDS011;28937;51.160;4.146;2023-09-07T14:39:49;4.40;;;2.83;;
43345;SDS011;28937;51.160;4.146;2023-09-07T14:42:15;3.75;;;2.55;;
43345;SDS011;28937;51.160;4.146;2023-09-07T14:44:44;3.03;;;2.47;;
43345;SDS011;28937;51.160;4.146;2023-09-07T14:47:10;2.70;;;2.50;;
43345;SDS011;28937;51.160;4.146;2023-09-07T14:49:36;3.05;;;2.72;;